createdAt,value
2019-05-02T00:02:13.265Z,24.43
2019-05-02T00:04:59.241Z,25.63
2019-05-02T00:07:45.375Z,24.80
2019-05-02T00:10:31.775Z,27.37
2019-05-02T00:13:18.906Z,26.07
2019-05-02T00:16:09.091Z,25.43
2019-05-02T00:18:53.335Z,24.97
2019-05-02T00:21:42.957Z,24.60
2019-05-02T00:24:27.840Z,22.90
2019-05-02T00:27:13.880Z,22.87
2019-05-02T00:30:00.397Z,22.10
2019-05-02T00:32:46.640Z,21.33
2019-05-02T00:35:32.930Z,20.93
2019-05-02T00:38:19.121Z,22.20
2019-05-02T00:41:04.941Z,21.50
2019-05-02T00:43:51.131Z,20.80
2019-05-02T00:46:37.315Z,20.43
2019-05-02T00:49:23.515Z,20.07
2019-05-02T00:52:09.520Z,20.63
2019-05-02T00:54:58.725Z,20.30
2019-05-02T00:57:43.764Z,20.20
2019-05-02T01:00:32.485Z,20.87
2019-05-02T01:03:18.883Z,20.50
2019-05-02T01:06:04.900Z,20.90
2019-05-02T01:08:51.010Z,19.83
2019-05-02T01:11:37.168Z,19.20
2019-05-02T01:14:27.171Z,20.10
2019-05-02T01:17:11.280Z,20.23
2019-05-02T01:19:57.565Z,21.20
2019-05-02T01:22:47.083Z,20.67
2019-05-02T01:25:31.695Z,20.37
2019-05-02T01:28:36.050Z,20.50
2019-05-02T01:31:31.960Z,21.53
2019-05-02T01:34:33.890Z,22.80
2019-05-02T01:37:24.280Z,21.67
2019-05-02T01:40:12.943Z,20.73
2019-05-02T01:43:03.971Z,21.50
2019-05-02T01:45:50.136Z,21.80
2019-05-02T01:48:40.172Z,22.07
2019-05-02T01:51:24.440Z,21.80
2019-05-02T01:54:11.475Z,20.97
2019-05-02T01:56:57.660Z,22.90
2019-05-02T01:59:43.790Z,23.10
2019-05-02T02:02:32.895Z,25.33
2019-05-02T02:05:18.138Z,25.20
2019-05-02T02:08:04.601Z,26.23
2019-05-02T02:10:55.894Z,28.27
2019-05-02T02:13:38.276Z,26.93
2019-05-02T02:16:24.610Z,28.63
2019-05-02T02:19:22.268Z,28.67
2019-05-02T02:22:19.484Z,29.27
2019-05-02T02:25:25.704Z,30.33
2019-05-02T02:28:11.875Z,30.30
2019-05-02T02:31:04.804Z,29.97
2019-05-02T02:33:48.024Z,29.17
2019-05-02T02:36:35.046Z,29.07
2019-05-02T02:39:21.654Z,28.87
2019-05-02T02:42:07.882Z,30.70
2019-05-02T02:45:03.296Z,30.97
2019-05-02T02:47:53.034Z,30.27
2019-05-02T02:50:43.176Z,31.80
2019-05-02T02:53:31.443Z,29.63
2019-05-02T02:56:18.048Z,28.80
2019-05-02T02:59:04.076Z,27.57
2019-05-02T03:01:50.280Z,27.93
2019-05-02T03:04:36.455Z,28.07
2019-05-02T03:07:26.035Z,28.57
2019-05-02T03:10:10.840Z,26.57
2019-05-02T03:13:21.475Z,26.80
2019-05-02T03:16:07.029Z,24.80
2019-05-02T03:18:51.896Z,24.77
2019-05-02T03:21:41.425Z,25.13
2019-05-02T03:24:27.382Z,25.00
2019-05-02T03:27:14.091Z,25.63
2019-05-02T03:30:00.277Z,26.33
2019-05-02T03:33:03.714Z,26.13
2019-05-02T03:35:43.380Z,27.20
2019-05-02T03:38:31.030Z,26.00
2019-05-02T03:41:13.534Z,26.50
2019-05-02T03:44:10.552Z,27.23
2019-05-02T03:46:54.530Z,26.10
2019-05-02T03:49:40.738Z,26.73
2019-05-02T03:52:24.719Z,27.37
2019-05-02T03:55:10.816Z,27.07
2019-05-02T03:57:56.872Z,25.80
2019-05-02T04:00:43.225Z,27.97
2019-05-02T04:03:34.326Z,26.23
2019-05-02T04:06:21.309Z,26.73
2019-05-02T04:09:06.946Z,27.27
2019-05-02T04:11:52.788Z,27.10
2019-05-02T04:14:39.715Z,27.20
2019-05-02T04:17:28.684Z,26.73
2019-05-02T04:20:13.980Z,26.40
2019-05-02T04:23:00.641Z,27.10
2019-05-02T04:25:47.952Z,26.33
2019-05-02T04:28:34.175Z,27.50
2019-05-02T04:31:25.040Z,28.80
2019-05-02T04:34:15.157Z,29.07
2019-05-02T04:37:01.071Z,23.10
2019-05-02T04:39:44.718Z,30.77
2019-05-02T04:42:30.960Z,28.83
2019-05-02T04:45:26.412Z,26.70
2019-05-02T04:48:08.149Z,28.20
2019-05-02T04:51:02.010Z,27.07
2019-05-02T04:53:45.230Z,25.57
2019-05-02T04:56:29.446Z,26.97
2019-05-02T04:59:19.966Z,25.00
2019-05-02T05:02:03.850Z,27.33
2019-05-02T05:04:49.813Z,26.33
2019-05-02T05:07:43.605Z,26.17
2019-05-02T05:10:23.924Z,26.27
2019-05-02T05:13:12.058Z,27.23
2019-05-02T05:15:58.146Z,24.97
2019-05-02T05:18:51.270Z,26.83
2019-05-02T05:21:32.535Z,24.90
2019-05-02T05:24:50.283Z,25.70
2019-05-02T05:27:37.699Z,25.23
2019-05-02T05:30:23.966Z,27.07
2019-05-02T05:33:10.433Z,25.13
2019-05-02T05:35:57.816Z,26.93
2019-05-02T05:38:44.077Z,25.57
2019-05-02T05:41:30.195Z,25.57
2019-05-02T05:44:18.090Z,26.43
2019-05-02T05:47:04.594Z,24.23
2019-05-02T05:49:52.372Z,24.00
2019-05-02T05:52:42.428Z,25.60
2019-05-02T05:55:28.158Z,24.70
2019-05-02T05:58:15.777Z,24.20
2019-05-02T06:01:03.040Z,26.23
2019-05-02T06:03:49.209Z,24.93
2019-05-02T06:06:37.747Z,25.03
2019-05-02T06:09:26.284Z,24.43
2019-05-02T06:12:13.155Z,25.93
2019-05-02T06:15:03.606Z,26.13
2019-05-02T06:17:47.660Z,26.53
2019-05-02T06:20:33.665Z,25.93
2019-05-02T06:23:19.996Z,25.23
2019-05-02T06:26:07.966Z,25.00
2019-05-02T06:28:54.321Z,24.57
2019-05-02T06:31:43.052Z,23.50
2019-05-02T06:34:28.766Z,26.13
2019-05-02T06:37:15.459Z,22.50
2019-05-02T06:40:03.116Z,24.80
2019-05-02T06:42:49.795Z,24.27
2019-05-02T06:45:37.593Z,25.50
2019-05-02T06:48:23.930Z,24.47
2019-05-02T06:51:17.111Z,23.63
2019-05-02T06:53:58.228Z,22.50
2019-05-02T06:56:47.885Z,23.90
2019-05-02T06:59:32.679Z,23.30
2019-05-02T07:02:18.915Z,24.17
2019-05-02T07:05:05.170Z,24.30
2019-05-02T07:07:51.828Z,24.83
2019-05-02T07:10:44.778Z,25.87
2019-05-02T07:13:26.360Z,23.10
2019-05-02T07:16:38.388Z,24.23
2019-05-02T07:19:34.681Z,26.57
2019-05-02T07:22:21.370Z,25.43
2019-05-02T07:25:08.916Z,25.43
2019-05-02T07:27:55.815Z,25.13
2019-05-02T07:30:41.813Z,25.47
2019-05-02T07:33:32.394Z,26.20
2019-05-02T07:36:16.149Z,25.37
2019-05-02T07:39:06.264Z,24.03
2019-05-02T07:41:51.931Z,26.27
2019-05-02T07:44:37.963Z,26.67
2019-05-02T07:47:24.260Z,25.57
2019-05-02T07:50:11.770Z,27.37
2019-05-02T07:52:58.175Z,25.87
2019-05-02T07:55:44.350Z,26.00
2019-05-02T07:58:30.526Z,25.57
2019-05-02T08:01:16.590Z,26.20
2019-05-02T08:04:04.758Z,27.10
2019-05-02T08:06:50.984Z,27.27
2019-05-02T08:09:39.178Z,28.77
2019-05-02T08:12:25.155Z,28.20
2019-05-02T08:15:13.122Z,26.70
2019-05-02T08:17:59.413Z,25.97
2019-05-02T08:20:45.750Z,24.87
2019-05-02T08:23:31.624Z,27.77
2019-05-02T08:26:21.717Z,25.30
2019-05-02T08:29:07.925Z,25.63
2019-05-02T08:31:54.304Z,27.50
2019-05-02T08:34:40.439Z,26.80
2019-05-02T08:37:26.812Z,26.67
2019-05-02T08:40:13.193Z,27.37
2019-05-02T08:43:03.477Z,25.87
2019-05-02T08:45:47.301Z,27.53
2019-05-02T08:48:36.450Z,26.97
2019-05-02T08:51:22.674Z,26.07
2019-05-02T08:54:08.780Z,25.53
2019-05-02T08:56:58.798Z,24.43
2019-05-02T08:59:43.296Z,25.40
2019-05-02T09:02:40.807Z,26.13
2019-05-02T09:05:17.138Z,24.97
2019-05-02T09:08:02.996Z,25.10
2019-05-02T09:10:49.172Z,24.97
2019-05-02T09:13:35.526Z,25.67
2019-05-02T09:16:28.807Z,25.47
2019-05-02T09:19:13.492Z,26.17
2019-05-02T09:21:58.179Z,27.20
2019-05-02T09:24:44.965Z,23.63
2019-05-02T09:27:31.886Z,24.63
2019-05-02T09:30:22.755Z,27.23
2019-05-02T09:33:07.609Z,28.23
2019-05-02T09:35:53.680Z,27.87
2019-05-02T09:38:42.486Z,26.60
2019-05-02T09:41:34.496Z,27.00
2019-05-02T09:44:18.698Z,26.37
2019-05-02T09:47:04.907Z,27.00
2019-05-02T09:50:07.255Z,25.93
2019-05-02T09:52:53.501Z,27.00
2019-05-02T09:55:42.333Z,27.60
2019-05-02T09:58:27.726Z,26.97
2019-05-02T10:01:22.391Z,29.43
2019-05-02T10:04:11.859Z,28.27
2019-05-02T10:06:57.966Z,28.03
2019-05-02T10:09:44.076Z,27.80
2019-05-02T10:12:32.007Z,26.97
2019-05-02T10:15:18.685Z,28.70
2019-05-02T10:18:10.699Z,30.23
2019-05-02T10:20:53.106Z,23.43
2019-05-02T10:23:39.429Z,28.30
2019-05-02T10:26:25.674Z,28.50
2019-05-02T10:29:12.768Z,26.47
2019-05-02T10:31:59.031Z,28.60
2019-05-02T10:34:47.492Z,27.60
2019-05-02T10:37:38.270Z,29.87
2019-05-02T10:40:22.566Z,27.60
2019-05-02T10:43:11.532Z,27.27
2019-05-02T10:46:03.013Z,25.63
2019-05-02T10:48:55.920Z,26.17
2019-05-02T10:51:49.046Z,26.27
2019-05-02T10:54:33.870Z,25.77
2019-05-02T10:57:18.335Z,25.70
2019-05-02T11:00:06.755Z,23.73
2019-05-02T11:03:03.245Z,25.57
2019-05-02T11:05:57.980Z,26.27
2019-05-02T11:08:45.841Z,24.20
2019-05-02T11:11:30.006Z,24.17
2019-05-02T11:14:25.911Z,24.40
2019-05-02T11:17:28.735Z,24.20
2019-05-02T11:20:15.315Z,23.97
2019-05-02T11:23:04.896Z,24.23
2019-05-02T11:25:52.633Z,23.70
2019-05-02T11:28:38.942Z,23.07
2019-05-02T11:31:25.175Z,24.97
2019-05-02T11:34:12.309Z,23.97
2019-05-02T11:36:59.016Z,23.47
2019-05-02T11:39:50.633Z,22.23
2019-05-02T11:42:33.595Z,23.33
2019-05-02T11:45:19.795Z,24.60
2019-05-02T11:48:09.116Z,21.87
2019-05-02T11:50:54.295Z,22.07
2019-05-02T11:53:42.002Z,21.50
2019-05-02T11:56:28.394Z,21.57
2019-05-02T11:59:15.555Z,21.33
2019-05-02T12:02:23.575Z,21.63
2019-05-02T12:05:12.786Z,21.23
2019-05-02T12:08:02.610Z,21.43
2019-05-02T12:10:47.094Z,21.13
2019-05-02T12:13:33.415Z,20.97
2019-05-02T12:16:20.095Z,21.97
2019-05-02T12:19:11.757Z,20.37
2019-05-02T12:21:55.155Z,18.70
2019-05-02T12:24:45.342Z,18.50
2019-05-02T12:27:31.747Z,18.83
2019-05-02T12:30:17.936Z,17.40
2019-05-02T12:33:04.295Z,19.10
2019-05-02T12:35:52.311Z,17.57
2019-05-02T12:38:38.669Z,19.23
2019-05-02T12:41:26.438Z,20.20
2019-05-02T12:44:13.456Z,18.43
2019-05-02T12:46:59.975Z,18.87
2019-05-02T12:49:46.382Z,19.00
2019-05-02T12:52:32.575Z,17.67
2019-05-02T12:55:18.894Z,19.00
2019-05-02T12:58:05.198Z,20.10
2019-05-02T13:00:53.085Z,19.30
2019-05-02T13:04:03.375Z,18.03
2019-05-02T13:06:49.762Z,16.90
2019-05-02T13:09:35.895Z,15.03
2019-05-02T13:12:27.395Z,17.30
2019-05-02T13:15:14.554Z,16.83
2019-05-02T13:18:03.009Z,17.07
2019-05-02T13:20:49.255Z,16.83
2019-05-02T13:23:45.658Z,16.27
2019-05-02T13:26:32.130Z,16.47
2019-05-02T13:29:18.784Z,16.20
2019-05-02T13:32:21.768Z,16.50
2019-05-02T13:35:17.561Z,15.13
2019-05-02T13:38:06.156Z,16.80
2019-05-02T13:40:52.563Z,15.83
2019-05-02T13:43:45.375Z,16.47
2019-05-02T13:46:32.227Z,16.73
2019-05-02T13:49:18.795Z,19.30
2019-05-02T13:52:05.094Z,16.40
2019-05-02T13:54:52.272Z,16.17
2019-05-02T13:57:43.129Z,16.80
2019-05-02T14:00:34.165Z,16.73
2019-05-02T14:03:22.608Z,17.20
2019-05-02T14:06:08.663Z,17.50
2019-05-02T14:09:02.883Z,16.67
2019-05-02T14:11:57.575Z,16.60
2019-05-02T14:14:44.134Z,17.03
2019-05-02T14:17:30.235Z,16.90
2019-05-02T14:20:18.815Z,17.67
2019-05-02T14:23:05.139Z,17.73
2019-05-02T14:25:52.182Z,17.40
2019-05-02T14:28:38.635Z,16.30
2019-05-02T14:31:25.555Z,18.40
2019-05-02T14:34:29.995Z,17.47
2019-05-02T14:37:16.695Z,16.83
2019-05-02T14:40:15.382Z,17.77
2019-05-02T14:43:03.422Z,19.60
2019-05-02T14:45:50.900Z,22.73
2019-05-02T14:48:45.245Z,26.03
2019-05-02T14:51:33.809Z,28.97
2019-05-02T14:54:20.235Z,31.13
2019-05-02T14:57:21.506Z,31.50
2019-05-02T15:00:06.377Z,34.13
2019-05-02T15:02:52.584Z,36.77
2019-05-02T15:05:38.835Z,37.43
2019-05-02T15:08:25.415Z,36.37
2019-05-02T15:11:12.564Z,35.10
2019-05-02T15:13:59.276Z,36.33
2019-05-02T15:16:45.452Z,38.07
2019-05-02T15:19:32.892Z,35.20
2019-05-02T15:22:19.795Z,37.50
2019-05-02T15:25:07.967Z,35.03
2019-05-02T15:27:58.781Z,35.90
2019-05-02T15:30:49.285Z,36.33
2019-05-02T15:33:34.958Z,33.67
2019-05-02T15:36:22.118Z,32.37
2019-05-02T15:41:58.376Z,34.40
2019-05-02T15:44:46.727Z,34.30
2019-05-02T15:47:37.014Z,35.50
2019-05-02T15:50:23.801Z,35.43
2019-05-02T15:53:32.512Z,38.20
2019-05-02T15:56:21.351Z,36.10
2019-05-02T15:59:07.499Z,38.03
2019-05-02T16:01:56.295Z,38.97
2019-05-02T16:04:43.315Z,39.30
2019-05-02T16:07:29.735Z,37.57
2019-05-02T16:10:16.055Z,36.83
2019-05-02T16:13:03.719Z,33.97
2019-05-02T16:15:52.646Z,37.07
2019-05-02T16:18:41.104Z,37.13
2019-05-02T16:21:42.725Z,35.90
2019-05-02T16:24:29.515Z,34.43
2019-05-02T16:27:16.336Z,35.90
2019-05-02T16:30:07.546Z,36.70
2019-05-02T16:32:55.415Z,37.17
2019-05-02T16:35:42.066Z,36.37
2019-05-02T16:38:32.396Z,39.90
2019-05-02T16:41:16.655Z,38.27
2019-05-02T16:44:03.355Z,39.20
2019-05-02T16:46:49.435Z,41.63
2019-05-02T16:49:35.615Z,38.20
2019-05-02T16:52:22.270Z,39.17
2019-05-02T16:55:13.711Z,40.20
2019-05-02T16:58:05.179Z,37.80
2019-05-02T17:00:46.019Z,38.80
2019-05-02T17:03:32.434Z,33.73
2019-05-02T17:06:22.467Z,35.63
2019-05-02T17:09:42.516Z,38.07
2019-05-02T17:12:28.915Z,34.67
2019-05-02T17:15:35.628Z,36.23
2019-05-02T17:18:22.830Z,35.70
2019-05-02T17:21:09.177Z,34.17
2019-05-02T17:23:55.415Z,32.73
2019-05-02T17:26:42.289Z,32.07
2019-05-02T17:29:28.675Z,32.47
2019-05-02T17:32:16.096Z,35.03
2019-05-02T17:35:09.609Z,36.27
2019-05-02T17:37:52.454Z,33.57
2019-05-02T17:40:38.915Z,34.77
2019-05-02T17:43:25.795Z,34.13
2019-05-02T17:46:12.551Z,32.90
2019-05-02T17:49:02.420Z,34.73
2019-05-02T17:52:12.250Z,37.03
2019-05-02T17:54:57.315Z,35.20
2019-05-02T17:57:42.958Z,36.43
2019-05-02T18:00:33.429Z,34.93
2019-05-02T18:03:24.234Z,32.77
2019-05-02T18:06:13.250Z,33.13
2019-05-02T18:08:57.979Z,33.33
2019-05-02T18:11:44.177Z,33.67
2019-05-02T18:14:30.695Z,33.70
2019-05-02T18:17:17.195Z,36.07
2019-05-02T18:20:06.159Z,34.83
2019-05-02T18:22:52.975Z,32.90
2019-05-02T18:25:39.875Z,33.60
2019-05-02T18:28:26.661Z,30.47
2019-05-02T18:31:13.215Z,31.00
2019-05-02T18:34:01.641Z,30.43
2019-05-02T18:36:48.674Z,29.40
2019-05-02T18:39:45.268Z,29.40
2019-05-02T18:42:25.623Z,27.17
2019-05-02T18:45:16.575Z,27.37
2019-05-02T18:48:06.687Z,26.77
2019-05-02T18:50:52.613Z,25.33
2019-05-02T18:53:39.755Z,25.27
2019-05-02T18:56:27.235Z,24.07
2019-05-02T18:59:14.152Z,24.87
2019-05-02T19:02:02.661Z,23.07
2019-05-02T19:04:49.230Z,22.97
2019-05-02T19:07:35.948Z,20.53
2019-05-02T19:10:22.715Z,20.07
2019-05-02T19:13:09.306Z,20.33
2019-05-02T19:15:55.856Z,18.60
2019-05-02T19:18:42.875Z,19.20
2019-05-02T19:21:31.937Z,20.13
2019-05-02T19:24:18.635Z,20.43
2019-05-02T19:27:06.237Z,20.37
2019-05-02T19:29:54.755Z,21.40
2019-05-02T19:32:41.756Z,21.40
2019-05-02T19:35:28.819Z,19.53
2019-05-02T19:38:17.066Z,21.60
2019-05-02T19:41:08.700Z,21.10
2019-05-02T19:43:53.381Z,20.40
2019-05-02T19:46:42.202Z,20.97
2019-05-02T19:49:28.980Z,20.43
2019-05-02T19:52:15.675Z,20.33
2019-05-02T19:55:02.295Z,21.43
2019-05-02T19:57:48.976Z,20.17
2019-05-02T20:00:36.531Z,20.93
2019-05-02T20:03:26.184Z,20.30
2019-05-02T20:06:13.003Z,19.83
2019-05-02T20:09:06.761Z,20.93
2019-05-02T20:11:48.575Z,20.77
2019-05-02T20:14:38.150Z,20.20
2019-05-02T20:17:24.164Z,21.10
2019-05-02T20:20:35.914Z,20.97
2019-05-02T20:23:28.588Z,21.43
2019-05-02T20:26:15.248Z,21.90
2019-05-02T20:28:59.096Z,22.80
2019-05-02T20:31:45.555Z,21.87
2019-05-02T20:34:32.520Z,20.60
2019-05-02T20:37:22.155Z,22.43
2019-05-02T20:40:23.415Z,21.90
2019-05-02T20:43:09.735Z,21.07
2019-05-02T20:45:56.435Z,19.80
2019-05-02T20:48:42.555Z,21.27
2019-05-02T20:51:28.638Z,21.43
2019-05-02T20:54:14.806Z,22.33
2019-05-02T20:57:02.450Z,21.70
2019-05-02T20:59:49.056Z,22.23
2019-05-02T21:02:35.296Z,21.40
2019-05-02T21:05:24.526Z,20.50
2019-05-02T21:08:26.416Z,19.33
2019-05-02T21:11:12.777Z,19.17
2019-05-02T21:13:59.237Z,18.67
2019-05-02T21:16:45.695Z,16.33
2019-05-02T21:19:32.353Z,15.53
2019-05-02T21:22:22.716Z,13.93
2019-05-02T21:25:09.314Z,13.60
2019-05-02T21:27:56.735Z,12.00
2019-05-02T21:30:43.076Z,9.90
2019-05-02T21:33:36.115Z,11.33
2019-05-02T21:36:22.789Z,11.47
2019-05-02T21:39:12.005Z,10.60
2019-05-02T21:41:58.155Z,10.97
2019-05-02T21:44:44.815Z,11.10
2019-05-02T21:47:31.879Z,11.10
2019-05-02T21:50:43.894Z,10.03
2019-05-02T21:53:56.036Z,9.10
2019-05-02T21:56:46.390Z,7.13
2019-05-02T21:59:34.875Z,9.27
2019-05-02T22:02:22.666Z,8.30
2019-05-02T22:05:09.201Z,7.00
2019-05-02T22:07:55.280Z,7.53
2019-05-02T22:10:42.671Z,7.97
2019-05-02T22:13:29.150Z,6.47
2019-05-02T22:16:15.173Z,6.67
2019-05-02T22:19:02.861Z,6.23
2019-05-02T22:21:49.406Z,5.30
2019-05-02T22:24:35.528Z,4.90
2019-05-02T22:27:21.923Z,5.13
2019-05-02T22:30:08.191Z,4.93
2019-05-02T22:32:54.320Z,4.87
2019-05-02T22:35:43.160Z,4.20
2019-05-02T22:38:39.140Z,4.00
2019-05-02T22:41:25.277Z,3.77
2019-05-02T22:44:12.482Z,3.27
2019-05-02T22:46:58.786Z,3.17
2019-05-02T22:49:44.940Z,3.33
2019-05-02T22:52:32.239Z,3.30
2019-05-02T22:55:18.560Z,4.30
2019-05-02T22:58:04.968Z,3.83
2019-05-02T23:00:52.240Z,3.27
2019-05-02T23:03:38.420Z,3.50
2019-05-02T23:06:24.675Z,3.80
2019-05-02T23:09:12.725Z,4.43
2019-05-02T23:11:58.840Z,4.27
2019-05-02T23:14:44.920Z,4.10
2019-05-02T23:17:32.160Z,4.20
2019-05-02T23:20:18.540Z,4.70
2019-05-02T23:23:04.646Z,4.50
2019-05-02T23:26:16.164Z,4.60
2019-05-02T23:29:02.808Z,5.27
2019-05-02T23:31:49.240Z,5.10
2019-05-02T23:34:35.305Z,5.83
2019-05-02T23:37:21.525Z,6.23
2019-05-02T23:40:07.800Z,6.57
2019-05-02T23:42:53.771Z,6.27
2019-05-02T23:45:42.177Z,5.40
2019-05-02T23:48:28.362Z,6.43
2019-05-02T23:51:14.410Z,6.20
2019-05-02T23:54:02.056Z,5.40
2019-05-02T23:56:48.480Z,5.70
2019-05-02T23:59:34.528Z,6.27
